Time;durP1;ratioP1;P1;durP2;ratioP2;P2;SDS_P1;SDS_P2;PMS_P1;PMS_P2;Temp;Humidity;BMP_temperature;BMP_pressure;BME280_temperature;BME280_humidity;BME280_pressure;Samples;Min_cycle;Max_cycle;Signal;HPM_P1;HPM_P2
2024/01/14 00:01:47;;;;;;;14.05;2.83;;;3.10;99.90;;;;;;4851571;29;20046;-79
2024/01/14 00:04:13;;;;;;;9.80;1.75;;;3.10;99.90;;;;;;4847007;29;20455;-80
2024/01/14 00:06:38;;;;;;;5.70;1.20;;;3.10;99.90;;;;;;4864463;29;20052;-80
2024/01/14 00:09:04;;;;;;;10.82;1.58;;;3.10;99.90;;;;;;4855341;29;20269;-80
2024/01/14 00:11:29;;;;;;;7.32;1.80;;;3.10;99.90;;;;;;4855204;29;20072;-80
2024/01/14 00:13:55;;;;;;;26.95;2.05;;;3.10;99.90;;;;;;4861038;29;20038;-80
2024/01/14 00:16:21;;;;;;;9.13;1.42;;;3.10;99.90;;;;;;4849803;29;20045;-80
2024/01/14 00:18:47;;;;;;;7.38;1.63;;;3.10;99.90;;;;;;4859967;29;20057;-80
2024/01/14 00:21:13;;;;;;;6.53;1.38;;;3.20;99.90;;;;;;4871154;29;20064;-80
2024/01/14 00:23:39;;;;;;;6.88;1.55;;;3.10;99.90;;;;;;4867694;29;20425;-80
2024/01/14 00:26:04;;;;;;;11.00;1.98;;;3.20;99.90;;;;;;4850228;29;20049;-80
2024/01/14 00:28:30;;;;;;;11.05;1.85;;;3.20;99.90;;;;;;4860407;29;20041;-80
2024/01/14 00:30:55;;;;;;;7.18;1.25;;;3.20;99.90;;;;;;4845908;29;20042;-80
2024/01/14 00:33:21;;;;;;;9.32;1.88;;;3.20;99.90;;;;;;4844313;29;20093;-80
2024/01/14 00:35:47;;;;;;;8.18;1.38;;;3.10;99.90;;;;;;4848174;29;20049;-80
2024/01/14 00:38:15;;;;;;;11.23;1.48;;;3.10;99.90;;;;;;4874012;29;20561;-80
2024/01/14 00:40:41;;;;;;;10.80;1.85;;;3.10;99.90;;;;;;4877243;29;20065;-80
2024/01/14 00:43:06;;;;;;;9.85;1.73;;;3.10;99.90;;;;;;4879833;29;20627;-80
2024/01/14 00:45:32;;;;;;;8.82;1.65;;;3.10;99.90;;;;;;4892441;29;20060;-80
2024/01/14 00:47:57;;;;;;;5.93;1.25;;;3.10;99.90;;;;;;4860096;29;20058;-80
2024/01/14 00:50:23;;;;;;;7.65;1.52;;;3.10;99.90;;;;;;4862963;29;20402;-80
2024/01/14 00:52:49;;;;;;;9.85;1.60;;;3.20;99.90;;;;;;4860843;29;20076;-80
2024/01/14 00:55:14;;;;;;;10.15;1.90;;;3.20;99.90;;;;;;4873209;29;20045;-80
2024/01/14 00:57:40;;;;;;;10.98;1.50;;;3.20;99.90;;;;;;4854641;29;20056;-80
2024/01/14 01:00:09;;;;;;;9.20;1.65;;;3.20;99.90;;;;;;4876610;29;20044;-80
2024/01/14 01:02:35;;;;;;;8.10;1.17;;;3.20;99.90;;;;;;4858473;29;20045;-80
2024/01/14 01:05:02;;;;;;;13.35;1.95;;;3.30;99.90;;;;;;4860021;29;20053;-80
2024/01/14 01:07:27;;;;;;;6.77;1.80;;;3.30;99.90;;;;;;4856648;29;20478;-80
2024/01/14 01:09:53;;;;;;;6.80;1.10;;;3.30;99.90;;;;;;4877723;29;20049;-79
2024/01/14 01:12:19;;;;;;;8.07;1.50;;;3.30;99.90;;;;;;4885779;29;20059;-80
2024/01/14 01:14:46;;;;;;;5.75;1.42;;;3.30;99.90;;;;;;4880071;29;20033;-80
2024/01/14 01:17:11;;;;;;;4.80;1.33;;;3.30;99.90;;;;;;4856090;29;20060;-80
2024/01/14 01:19:37;;;;;;;9.25;1.45;;;3.30;99.90;;;;;;4869365;29;20382;-80
2024/01/14 01:22:03;;;;;;;8.18;1.58;;;3.40;99.90;;;;;;4881438;29;20053;-80
2024/01/14 01:24:29;;;;;;;9.25;1.40;;;3.40;99.90;;;;;;4860094;29;20048;-80
2024/01/14 01:26:54;;;;;;;6.75;1.40;;;3.40;99.90;;;;;;4842850;29;20494;-80
2024/01/14 01:29:20;;;;;;;7.55;1.30;;;3.40;99.90;;;;;;4854800;29;20064;-80
2024/01/14 01:31:45;;;;;;;7.38;1.30;;;3.50;99.90;;;;;;4859586;29;20506;-80
2024/01/14 01:34:11;;;;;;;8.27;1.13;;;3.50;99.90;;;;;;4896965;29;20097;-81
2024/01/14 01:36:37;;;;;;;13.85;1.67;;;3.50;99.90;;;;;;4852204;29;20205;-80
2024/01/14 01:39:03;;;;;;;13.60;1.85;;;3.50;99.90;;;;;;4882204;29;20480;-80
2024/01/14 01:41:28;;;;;;;16.48;2.92;;;3.50;99.90;;;;;;4887802;29;20505;-80
2024/01/14 01:43:54;;;;;;;4.95;1.10;;;3.60;99.90;;;;;;4863746;29;20055;-80
2024/01/14 01:46:20;;;;;;;5.97;1.05;;;3.60;99.90;;;;;;4873272;29;20041;-80
2024/01/14 01:48:46;;;;;;;4.97;1.17;;;3.70;99.90;;;;;;4876079;29;20113;-80
2024/01/14 01:51:13;;;;;;;5.97;0.70;;;3.70;99.90;;;;;;4879405;29;20413;-80
2024/01/14 01:53:40;;;;;;;7.50;1.25;;;3.80;99.90;;;;;;4856332;29;20052;-80
2024/01/14 01:56:06;;;;;;;7.15;0.73;;;3.80;99.90;;;;;;4882388;29;20277;-80
2024/01/14 01:58:32;;;;;;;9.15;1.13;;;3.80;99.90;;;;;;4872417;29;20068;-80
2024/01/14 02:00:58;;;;;;;5.80;1.02;;;3.90;99.90;;;;;;4873634;29;20083;-80
2024/01/14 02:03:24;;;;;;;6.15;0.70;;;3.90;99.90;;;;;;4863908;29;20217;-80
2024/01/14 02:05:54;;;;;;;6.63;0.82;;;3.90;99.90;;;;;;4868114;29;20057;-80
2024/01/14 02:08:20;;;;;;;5.97;1.23;;;3.90;99.90;;;;;;4858833;29;20462;-80
2024/01/14 02:10:46;;;;;;;9.25;1.10;;;3.90;99.90;;;;;;4892611;29;20131;-80
2024/01/14 02:13:11;;;;;;;10.43;0.90;;;3.90;99.90;;;;;;4885829;29;20092;-80
2024/01/14 02:15:37;;;;;;;8.38;1.25;;;3.90;99.90;;;;;;4859650;29;21782;-80
2024/01/14 02:18:03;;;;;;;4.93;0.80;;;3.90;99.90;;;;;;4869460;29;20660;-80
2024/01/14 02:20:29;;;;;;;5.57;0.90;;;3.90;99.90;;;;;;4882997;29;20087;-80
2024/01/14 02:22:56;;;;;;;7.88;1.10;;;3.90;99.90;;;;;;4864366;29;20413;-80
2024/01/14 02:25:22;;;;;;;9.38;1.48;;;3.90;99.90;;;;;;4850535;29;20127;-80
2024/01/14 02:27:48;;;;;;;4.65;0.90;;;3.90;99.90;;;;;;4845859;29;20057;-80
2024/01/14 02:30:14;;;;;;;2.33;0.95;;;3.90;99.90;;;;;;4891473;29;20110;-80
2024/01/14 02:32:39;;;;;;;8.70;1.30;;;3.90;99.90;;;;;;4875111;29;20052;-80
2024/01/14 02:35:06;;;;;;;9.70;1.00;;;3.90;99.90;;;;;;4884467;29;20047;-80
2024/01/14 02:37:42;;;;;;;12.15;1.58;;;3.90;99.90;;;;;;4891620;29;20102;-80
2024/01/14 02:40:09;;;;;;;10.43;2.33;;;3.80;99.90;;;;;;4847156;29;20382;-80
2024/01/14 02:42:35;;;;;;;;;;;3.80;99.90;;;;;;4849368;29;20049;-80
2024/01/14 02:45:01;;;;;;;12.82;1.63;;;3.80;99.90;;;;;;4865290;29;19927;-80
2024/01/14 02:47:27;;;;;;;10.40;1.13;;;3.70;99.90;;;;;;4861132;29;20041;-80
2024/01/14 02:49:53;;;;;;;7.30;1.00;;;3.80;99.90;;;;;;4866326;29;20054;-80
2024/01/14 02:52:18;;;;;;;7.93;1.10;;;3.70;99.90;;;;;;4883885;29;20045;-80
2024/01/14 02:54:44;;;;;;;7.50;1.05;;;3.70;99.90;;;;;;4869614;29;20056;-80
2024/01/14 02:57:10;;;;;;;8.65;1.10;;;3.70;99.90;;;;;;4895529;29;20088;-80
2024/01/14 02:59:37;;;;;;;13.48;1.40;;;3.70;99.90;;;;;;4872012;29;20481;-80
2024/01/14 03:02:03;;;;;;;;;;;3.70;99.90;;;;;;4872037;29;20060;-80
2024/01/14 03:04:29;;;;;;;9.30;1.05;;;3.70;99.90;;;;;;4859260;29;19927;-80
2024/01/14 03:06:54;;;;;;;5.63;0.98;;;3.70;99.90;;;;;;4875480;29;20052;-80
2024/01/14 03:09:20;;;;;;;14.15;1.27;;;3.70;99.90;;;;;;4891669;29;20056;-81
2024/01/14 03:11:46;;;;;;;8.60;1.13;;;3.60;99.90;;;;;;4871933;29;20068;-80
2024/01/14 03:14:11;;;;;;;5.32;1.00;;;3.50;99.90;;;;;;4895538;29;20040;-80
2024/01/14 03:16:37;;;;;;;3.50;0.80;;;3.50;99.90;;;;;;4865346;29;20045;-80
2024/01/14 03:19:03;;;;;;;6.15;1.40;;;3.40;99.90;;;;;;4854974;29;20048;-80
2024/01/14 03:21:28;;;;;;;12.35;1.77;;;3.40;99.90;;;;;;4875537;29;20052;-80
2024/01/14 03:23:54;;;;;;;8.73;1.42;;;3.40;99.90;;;;;;4855772;29;20061;-80
2024/01/14 03:26:20;;;;;;;5.35;0.93;;;3.40;99.90;;;;;;4852520;29;20414;-80
2024/01/14 03:28:45;;;;;;;11.30;1.50;;;3.30;99.90;;;;;;4872669;29;20041;-80
2024/01/14 03:31:15;;;;;;;13.80;1.63;;;3.30;99.90;;;;;;4874192;29;20446;-80
2024/01/14 03:33:42;;;;;;;8.95;1.58;;;3.30;99.90;;;;;;4871739;29;20045;-80
2024/01/14 03:36:08;;;;;;;8.68;0.90;;;3.30;99.90;;;;;;4866045;29;20056;-80
2024/01/14 03:38:34;;;;;;;9.60;1.20;;;3.30;99.90;;;;;;4882087;29;20057;-80
2024/01/14 03:40:59;;;;;;;12.13;1.27;;;3.30;99.90;;;;;;4875211;29;20128;-80
2024/01/14 03:43:25;;;;;;;11.00;1.08;;;3.20;99.90;;;;;;4859233;29;20056;-80
2024/01/14 03:45:51;;;;;;;9.98;1.92;;;3.20;99.90;;;;;;4868923;29;20061;-80
2024/01/14 03:48:16;;;;;;;10.80;1.33;;;3.20;99.90;;;;;;4874211;29;20100;-80
2024/01/14 03:50:42;;;;;;;10.55;1.38;;;3.10;99.90;;;;;;4856987;29;20585;-80
2024/01/14 03:53:08;;;;;;;6.22;1.00;;;3.10;99.90;;;;;;4856406;29;20116;-80
2024/01/14 03:55:33;;;;;;;9.63;1.20;;;3.10;99.90;;;;;;4882891;29;20095;-80
2024/01/14 03:57:59;;;;;;;13.85;1.45;;;3.10;99.90;;;;;;4866841;29;20109;-80
2024/01/14 04:00:24;;;;;;;10.73;1.55;;;3.10;99.90;;;;;;4866081;29;20456;-80
2024/01/14 04:02:50;;;;;;;10.52;1.30;;;3.00;99.90;;;;;;4874944;29;20068;-80
2024/01/14 04:05:16;;;;;;;6.63;1.15;;;3.00;99.90;;;;;;4883346;29;20642;-80
2024/01/14 04:07:41;;;;;;;7.60;0.98;;;3.00;99.90;;;;;;4853856;29;20049;-80
2024/01/14 04:10:07;;;;;;;15.82;1.88;;;3.00;99.90;;;;;;4873769;29;20060;-80
2024/01/14 04:12:33;;;;;;;7.95;1.25;;;3.00;99.90;;;;;;4880648;29;20044;-80
2024/01/14 04:14:58;;;;;;;5.63;1.10;;;2.90;99.90;;;;;;4880355;29;20405;-80
2024/01/14 04:17:24;;;;;;;9.40;1.67;;;2.90;99.90;;;;;;4873259;29;20045;-80
2024/01/14 04:19:50;;;;;;;10.73;0.98;;;2.90;99.90;;;;;;4865559;29;20143;-80
2024/01/14 04:22:16;;;;;;;6.90;1.00;;;2.90;99.90;;;;;;4872693;29;20076;-80
2024/01/14 04:24:41;;;;;;;11.10;1.17;;;2.90;99.90;;;;;;4871769;29;20045;-80
2024/01/14 04:27:07;;;;;;;13.60;1.25;;;2.90;99.90;;;;;;4871175;29;20094;-80
2024/01/14 04:29:33;;;;;;;15.35;1.50;;;2.90;99.90;;;;;;4844538;29;20168;-80
2024/01/14 04:32:00;;;;;;;6.07;0.93;;;2.80;99.90;;;;;;4850546;29;20114;-80
2024/01/14 04:34:25;;;;;;;8.70;1.27;;;2.80;99.90;;;;;;4851045;29;20455;-80
2024/01/14 04:36:51;;;;;;;7.18;1.02;;;2.80;99.90;;;;;;4872226;29;20132;-80
2024/01/14 04:39:17;;;;;;;8.15;1.77;;;2.80;99.90;;;;;;4851460;29;20057;-80
2024/01/14 04:41:42;;;;;;;9.30;1.20;;;2.80;99.90;;;;;;4861897;29;20057;-80
2024/01/14 04:44:08;;;;;;;15.63;1.55;;;2.80;99.90;;;;;;4890496;29;20105;-80
2024/01/14 04:46:33;;;;;;;7.53;1.13;;;2.80;99.90;;;;;;4858594;29;20383;-80
2024/01/14 04:48:59;;;;;;;6.40;1.27;;;2.80;99.90;;;;;;4867882;29;20053;-80
2024/01/14 04:51:25;;;;;;;12.05;1.33;;;2.80;99.90;;;;;;4857590;29;20053;-80
2024/01/14 04:53:50;;;;;;;6.88;0.93;;;2.80;99.90;;;;;;4870270;29;20047;-80
2024/01/14 04:56:16;;;;;;;13.32;1.67;;;2.80;99.90;;;;;;4863353;29;20057;-80
2024/01/14 04:58:41;;;;;;;12.82;0.90;;;2.80;99.90;;;;;;4884615;29;20112;-80
2024/01/14 05:01:07;;;;;;;9.15;1.30;;;2.80;99.90;;;;;;4871249;29;20099;-80
2024/01/14 05:03:33;;;;;;;8.10;1.42;;;2.80;99.90;;;;;;4870474;29;20481;-80
2024/01/14 05:05:58;;;;;;;12.93;2.35;;;2.80;99.90;;;;;;4865085;29;20055;-80
2024/01/14 05:08:24;;;;;;;6.10;1.30;;;2.80;99.90;;;;;;4849238;29;20065;-80
2024/01/14 05:10:50;;;;;;;10.88;1.27;;;2.90;99.90;;;;;;4864107;29;20045;-80
2024/01/14 05:13:15;;;;;;;5.78;1.23;;;2.90;99.90;;;;;;4863545;29;20810;-80
2024/01/14 05:15:41;;;;;;;7.15;1.55;;;2.90;99.90;;;;;;4871988;29;20101;-81
2024/01/14 05:18:06;;;;;;;9.02;1.00;;;3.00;99.90;;;;;;4887175;29;20048;-80
2024/01/14 05:20:32;;;;;;;9.68;1.48;;;3.00;99.90;;;;;;4859693;29;20045;-80
2024/01/14 05:22:58;;;;;;;8.02;1.13;;;3.00;99.90;;;;;;4849783;29;21045;-80
2024/01/14 05:25:23;;;;;;;16.20;3.20;;;3.00;99.90;;;;;;4893368;29;20043;-80
2024/01/14 05:27:49;;;;;;;6.57;1.25;;;3.10;99.90;;;;;;4883019;29;20075;-80
2024/01/14 05:30:14;;;;;;;8.75;1.52;;;3.10;99.90;;;;;;4863632;29;20140;-80
2024/01/14 05:32:40;;;;;;;6.30;1.15;;;3.10;99.90;;;;;;4875304;29;20520;-80
2024/01/14 05:35:06;;;;;;;6.65;0.93;;;3.10;99.90;;;;;;4876722;29;20040;-80
2024/01/14 05:37:31;;;;;;;6.90;0.75;;;3.00;99.90;;;;;;4895349;29;20469;-81
2024/01/14 05:39:57;;;;;;;11.32;0.98;;;3.00;99.90;;;;;;4890463;29;20045;-80
2024/01/14 05:42:23;;;;;;;10.52;1.45;;;3.00;99.90;;;;;;4843301;29;22168;-80
2024/01/14 05:44:49;;;;;;;3.85;1.23;;;2.90;99.90;;;;;;4882603;29;20461;-80
2024/01/14 05:47:14;;;;;;;6.80;0.68;;;2.90;99.90;;;;;;4871544;29;21614;-80
2024/01/14 05:49:40;;;;;;;6.32;0.75;;;2.90;99.90;;;;;;4872995;29;20787;-80
2024/01/14 05:52:06;;;;;;;9.05;0.60;;;2.90;99.90;;;;;;4869736;29;20049;-80
2024/01/14 05:54:31;;;;;;;7.20;0.60;;;2.90;99.90;;;;;;4877862;29;20513;-80
2024/01/14 05:56:57;;;;;;;8.38;1.20;;;2.90;99.90;;;;;;4858789;29;20604;-80
2024/01/14 05:59:23;;;;;;;6.15;1.00;;;2.90;99.90;;;;;;4880048;29;20045;-80
2024/01/14 06:01:49;;;;;;;10.02;0.95;;;2.90;99.90;;;;;;4857514;29;20048;-80
2024/01/14 06:04:15;;;;;;;5.93;1.13;;;2.90;99.90;;;;;;4877685;29;20053;-80
2024/01/14 06:06:40;;;;;;;4.35;0.88;;;2.90;99.90;;;;;;4862718;29;20053;-80
2024/01/14 06:09:06;;;;;;;6.95;1.60;;;2.90;99.90;;;;;;4857792;29;20562;-80
2024/01/14 06:11:32;;;;;;;6.25;0.80;;;2.80;99.90;;;;;;4875874;29;20908;-80
2024/01/14 06:13:57;;;;;;;8.73;1.20;;;2.90;99.90;;;;;;4871848;29;20446;-80
2024/01/14 06:16:24;;;;;;;7.38;1.25;;;2.80;99.90;;;;;;4855740;29;20095;-80
2024/01/14 06:18:50;;;;;;;5.55;0.73;;;2.80;99.90;;;;;;4861762;29;20048;-80
2024/01/14 06:21:16;;;;;;;7.10;1.10;;;2.80;99.90;;;;;;4879318;29;20305;-80
2024/01/14 06:23:41;;;;;;;4.30;1.02;;;2.80;99.90;;;;;;4876731;29;20045;-80
2024/01/14 06:26:07;;;;;;;4.60;0.70;;;2.80;99.90;;;;;;4874468;29;20161;-80
2024/01/14 06:28:33;;;;;;;4.50;1.08;;;2.80;99.90;;;;;;4861024;29;20045;-80
2024/01/14 06:30:59;;;;;;;5.78;1.05;;;2.80;99.90;;;;;;4858179;29;20065;-80
2024/01/14 06:33:24;;;;;;;6.00;0.98;;;2.80;99.90;;;;;;4856987;29;20556;-80
2024/01/14 06:35:50;;;;;;;4.10;0.65;;;2.80;99.90;;;;;;4886177;29;20139;-79
2024/01/14 06:38:15;;;;;;;8.30;0.90;;;2.80;99.90;;;;;;4875061;29;20061;-80
2024/01/14 06:40:41;;;;;;;11.80;1.45;;;2.90;99.90;;;;;;4861672;29;20053;-80
2024/01/14 06:43:08;;;;;;;5.90;1.10;;;2.90;99.90;;;;;;4879594;29;20051;-80
2024/01/14 06:45:33;;;;;;;6.13;1.10;;;3.00;99.90;;;;;;4876343;29;20044;-80
2024/01/14 06:47:59;;;;;;;8.15;1.48;;;3.00;99.90;;;;;;4886879;29;20095;-80
2024/01/14 06:50:25;;;;;;;7.90;1.73;;;3.10;99.90;;;;;;4894655;29;20080;-80
2024/01/14 06:52:50;;;;;;;7.22;1.08;;;3.10;99.90;;;;;;4850043;29;20111;-80
2024/01/14 06:55:16;;;;;;;12.63;1.73;;;3.20;99.90;;;;;;4861177;29;20194;-80
2024/01/14 06:57:42;;;;;;;5.28;1.00;;;3.20;99.90;;;;;;4871589;29;22151;-80
2024/01/14 07:00:08;;;;;;;5.57;1.23;;;3.20;99.90;;;;;;4857028;29;20047;-80
2024/01/14 07:02:34;;;;;;;10.40;1.67;;;3.20;99.90;;;;;;4875247;29;20048;-80
2024/01/14 07:05:00;;;;;;;10.65;1.48;;;3.30;99.90;;;;;;4876622;29;20108;-80
2024/01/14 07:07:27;;;;;;;19.08;1.75;;;3.30;99.90;;;;;;4890447;29;20486;-80
2024/01/14 07:09:53;;;;;;;5.93;1.30;;;3.30;99.90;;;;;;4883905;29;20113;-80
2024/01/14 07:12:18;;;;;;;5.43;0.80;;;3.30;99.90;;;;;;4883431;29;20049;-80
2024/01/14 07:14:44;;;;;;;9.02;1.35;;;3.30;99.90;;;;;;4867684;29;20136;-80
2024/01/14 07:17:10;;;;;;;11.57;2.65;;;3.30;99.90;;;;;;4875673;29;20409;-80
2024/01/14 07:19:35;;;;;;;6.40;1.00;;;3.30;99.90;;;;;;4850565;29;20052;-80
2024/01/14 07:22:02;;;;;;;4.63;1.35;;;3.40;99.90;;;;;;4871904;29;20056;-80
2024/01/14 07:24:28;;;;;;;8.30;1.90;;;3.30;99.90;;;;;;4874707;29;20040;-80
2024/01/14 07:26:53;;;;;;;4.95;1.27;;;3.30;99.90;;;;;;4884728;29;20422;-80
2024/01/14 07:29:19;;;;;;;8.95;1.40;;;3.30;99.90;;;;;;4868479;29;20080;-80
2024/01/14 07:31:45;;;;;;;7.82;1.02;;;3.30;99.90;;;;;;4867592;29;20120;-80
2024/01/14 07:34:10;;;;;;;6.25;1.45;;;3.30;99.90;;;;;;4866671;29;20177;-80
2024/01/14 07:36:36;;;;;;;4.85;1.30;;;3.30;99.90;;;;;;4852038;29;20301;-80
2024/01/14 07:39:03;;;;;;;9.30;1.10;;;3.30;99.90;;;;;;4863506;29;20052;-80
2024/01/14 07:41:28;;;;;;;3.65;0.90;;;3.30;99.90;;;;;;4872284;29;20460;-80
2024/01/14 07:43:54;;;;;;;9.25;1.10;;;3.30;99.90;;;;;;4856694;29;20043;-80
2024/01/14 07:46:20;;;;;;;3.65;1.02;;;3.30;99.90;;;;;;4865024;29;20147;-80
2024/01/14 07:48:46;;;;;;;6.57;1.33;;;3.30;99.90;;;;;;4852869;29;20064;-80
2024/01/14 07:51:12;;;;;;;3.72;0.82;;;3.20;99.90;;;;;;4852326;29;20053;-80
2024/01/14 07:53:37;;;;;;;6.50;1.13;;;3.30;99.90;;;;;;4848615;29;20045;-75
2024/01/14 07:56:03;;;;;;;7.43;1.58;;;3.30;99.90;;;;;;4884364;29;20052;-80
2024/01/14 07:58:30;;;;;;;7.93;1.20;;;3.30;99.90;;;;;;4860049;29;20294;-81
2024/01/14 08:00:55;;;;;;;4.88;0.80;;;3.30;99.90;;;;;;4862678;29;20069;-84
2024/01/14 08:03:21;;;;;;;6.88;1.00;;;3.30;99.90;;;;;;4859499;29;20424;-79
2024/01/14 08:05:47;;;;;;;4.80;0.90;;;3.30;99.90;;;;;;4885025;29;20108;-85
2024/01/14 08:08:13;;;;;;;5.70;1.40;;;3.30;99.90;;;;;;4854923;29;20072;-85
2024/01/14 08:10:39;;;;;;;2.78;0.70;;;3.30;99.90;;;;;;4867317;29;20752;-77
2024/01/14 08:13:05;;;;;;;7.85;1.10;;;3.30;99.90;;;;;;4870627;29;20576;-84
2024/01/14 08:15:30;;;;;;;2.90;0.73;;;3.30;99.90;;;;;;4873674;29;20049;-82
2024/01/14 08:17:56;;;;;;;6.60;1.00;;;3.40;99.90;;;;;;4855951;29;20061;-84
2024/01/14 08:20:22;;;;;;;4.85;1.02;;;3.40;99.90;;;;;;4866706;29;20124;-84
2024/01/14 08:22:48;;;;;;;4.05;1.70;;;3.40;99.90;;;;;;4886174;29;20049;-81
2024/01/14 08:25:14;;;;;;;4.18;1.10;;;3.40;99.90;;;;;;4846486;29;20044;-81
2024/01/14 08:27:40;;;;;;;7.85;1.20;;;3.40;99.90;;;;;;4850188;29;20052;-85
2024/01/14 08:30:06;;;;;;;5.25;1.58;;;3.50;99.90;;;;;;4867149;29;20352;-85
2024/01/14 08:32:32;;;;;;;7.13;1.95;;;3.50;99.90;;;;;;4884346;29;20438;-85
2024/01/14 08:34:58;;;;;;;6.10;1.48;;;3.50;99.90;;;;;;4873891;29;20029;-82
2024/01/14 08:37:24;;;;;;;10.55;1.50;;;3.50;99.90;;;;;;4854668;29;20085;-84
2024/01/14 08:39:50;;;;;;;6.63;1.58;;;3.50;99.90;;;;;;4859598;29;20089;-85
2024/01/14 08:42:17;;;;;;;6.63;2.03;;;3.60;99.90;;;;;;4870334;29;20423;-83
2024/01/14 08:44:42;;;;;;;12.30;1.97;;;3.60;99.90;;;;;;4870141;29;20057;-83
2024/01/14 08:47:08;;;;;;;4.72;1.70;;;3.60;99.90;;;;;;4846871;29;20052;-82
2024/01/14 08:49:34;;;;;;;5.68;2.08;;;3.60;99.90;;;;;;4872687;29;20049;-82
2024/01/14 08:52:01;;;;;;;8.45;2.20;;;3.60;99.90;;;;;;4863645;29;20056;-81
2024/01/14 08:54:36;;;;;;;6.00;1.77;;;3.60;99.90;;;;;;4859617;29;20497;-81
2024/01/14 08:57:02;;;;;;;6.50;2.00;;;3.60;99.90;;;;;;4876076;29;20060;-81
2024/01/14 08:59:28;;;;;;;10.38;2.33;;;3.70;99.90;;;;;;4858521;29;20048;-81
2024/01/14 09:01:53;;;;;;;6.72;2.05;;;3.70;99.90;;;;;;4876917;29;20044;-81
2024/01/14 09:04:22;;;;;;;7.75;3.00;;;3.70;99.90;;;;;;4857641;29;20132;-81
2024/01/14 09:06:48;;;;;;;7.78;2.35;;;3.70;99.90;;;;;;4853237;29;20130;-82
2024/01/14 09:09:14;;;;;;;12.55;6.72;;;3.70;99.90;;;;;;4860885;29;20097;-81
2024/01/14 09:11:39;;;;;;;10.38;2.78;;;3.80;99.90;;;;;;4859438;29;20057;-81
2024/01/14 09:14:05;;;;;;;10.18;3.00;;;3.80;99.90;;;;;;4875660;29;20049;-81
2024/01/14 09:16:31;;;;;;;19.20;8.50;;;3.80;99.90;;;;;;4876524;29;20438;-80
2024/01/14 09:18:57;;;;;;;11.75;3.72;;;3.80;99.90;;;;;;4877756;29;20073;-82
2024/01/14 09:21:23;;;;;;;7.88;2.85;;;3.80;99.90;;;;;;4876081;29;20083;-81
2024/01/14 09:23:48;;;;;;;14.18;3.90;;;3.80;99.90;;;;;;4853389;29;20046;-81
2024/01/14 09:26:14;;;;;;;12.27;4.05;;;3.80;99.90;;;;;;4860856;29;20053;-80
2024/01/14 09:28:40;;;;;;;8.57;3.72;;;3.80;99.90;;;;;;4868857;29;20159;-82
2024/01/14 09:31:05;;;;;;;11.27;4.03;;;3.80;99.90;;;;;;4861097;29;20135;-81
2024/01/14 09:33:31;;;;;;;10.80;4.40;;;3.80;99.90;;;;;;4876196;29;20052;-81
2024/01/14 09:36:05;;;;;;;10.23;4.72;;;3.80;99.90;;;;;;4858912;29;20072;-81
2024/01/14 09:38:31;;;;;;;11.07;4.70;;;3.90;99.90;;;;;;4854333;29;20062;-81
2024/01/14 09:41:21;;;;;;;10.98;4.13;;;3.80;99.90;;;;;;4863604;29;20062;-81
2024/01/14 09:43:50;;;;;;;11.88;5.28;;;3.80;99.90;;;;;;4879361;29;20071;-81
2024/01/14 09:46:16;;;;;;;11.18;5.30;;;3.90;99.90;;;;;;4851973;29;20394;-81
2024/01/14 09:48:47;;;;;;;10.23;4.03;;;3.90;99.90;;;;;;4860225;29;20057;-81
2024/01/14 09:51:15;;;;;;;9.55;3.72;;;3.90;99.90;;;;;;4850651;29;20486;-82
2024/01/14 09:53:43;;;;;;;8.40;3.10;;;3.90;99.90;;;;;;4857800;29;20177;-81
2024/01/14 09:56:10;;;;;;;10.25;4.25;;;3.90;99.90;;;;;;4881256;29;20581;-82
2024/01/14 09:58:39;;;;;;;8.35;3.75;;;4.00;99.90;;;;;;4852741;29;20054;-81
2024/01/14 10:01:07;;;;;;;9.23;3.60;;;3.90;99.90;;;;;;4856485;29;20131;-82
2024/01/14 10:03:34;;;;;;;9.00;3.10;;;4.00;99.90;;;;;;4845421;29;20048;-81
2024/01/14 10:06:01;;;;;;;8.90;3.92;;;3.90;99.90;;;;;;4852445;29;20662;-79
2024/01/14 10:08:27;;;;;;;12.13;4.18;;;4.00;99.90;;;;;;4852504;29;20049;-76
2024/01/14 10:10:53;;;;;;;9.00;3.85;;;3.90;99.90;;;;;;4847985;29;20058;-80
2024/01/14 10:13:21;;;;;;;11.95;4.53;;;3.90;99.90;;;;;;4866132;29;20061;-81
2024/01/14 10:15:48;;;;;;;12.05;4.70;;;4.00;99.90;;;;;;4855906;29;20045;-81
2024/01/14 10:18:14;;;;;;;8.18;3.75;;;4.00;99.90;;;;;;4855123;29;20049;-82
2024/01/14 10:20:40;;;;;;;12.45;5.22;;;3.90;99.90;;;;;;4853535;29;20443;-83
2024/01/14 10:23:05;;;;;;;9.70;5.05;;;3.90;99.90;;;;;;4837781;29;20102;-82
2024/01/14 10:25:31;;;;;;;12.90;5.40;;;3.90;99.90;;;;;;4854248;29;20086;-83
2024/01/14 10:28:01;;;;;;;13.38;6.32;;;3.80;99.90;;;;;;4840359;29;20105;-83
2024/01/14 10:30:27;;;;;;;20.42;7.88;;;3.90;99.90;;;;;;4854683;29;20053;-79
2024/01/14 10:32:53;;;;;;;20.00;7.45;;;3.90;99.90;;;;;;4831574;29;20061;-78
2024/01/14 10:35:24;;;;;;;16.55;7.85;;;3.90;99.90;;;;;;4836990;29;20503;-80
2024/01/14 10:37:49;;;;;;;16.50;8.23;;;3.90;99.90;;;;;;4849383;29;20098;-81
2024/01/14 10:40:17;;;;;;;17.80;7.47;;;3.90;99.90;;;;;;4874775;29;20044;-82
2024/01/14 10:42:42;;;;;;;17.85;8.02;;;4.00;99.90;;;;;;4879546;29;20087;-89
2024/01/14 10:45:08;;;;;;;18.40;9.45;;;4.00;99.90;;;;;;4850745;29;20120;-80
2024/01/14 10:47:35;;;;;;;19.77;8.00;;;4.00;99.90;;;;;;4849730;29;20046;-79
2024/01/14 10:50:01;;;;;;;16.52;6.82;;;3.90;99.90;;;;;;4864965;29;20040;-79
2024/01/14 10:52:31;;;;;;;15.38;7.63;;;3.90;99.90;;;;;;4856678;29;20100;-84
2024/01/14 10:55:06;;;;;;;19.25;9.13;;;3.90;99.90;;;;;;4871551;29;20072;-87
2024/01/14 10:57:36;;;;;;;24.40;9.02;;;3.90;99.90;;;;;;4855469;29;20052;-77
2024/01/14 11:00:05;;;;;;;18.08;8.30;;;3.90;99.90;;;;;;4860801;29;20052;-81
2024/01/14 11:02:33;;;;;;;13.60;7.13;;;3.90;99.90;;;;;;4851405;29;20103;-81
2024/01/14 11:04:59;;;;;;;16.50;7.95;;;3.90;99.90;;;;;;4871425;29;20055;-79
2024/01/14 11:07:25;;;;;;;19.83;8.77;;;3.90;99.90;;;;;;4873296;29;20049;-80
2024/01/14 11:09:53;;;;;;;18.48;8.65;;;3.90;99.90;;;;;;4868853;29;20045;-83
2024/01/14 11:12:29;;;;;;;19.67;8.48;;;3.90;99.90;;;;;;4862911;29;20049;-83
2024/01/14 11:15:19;;;;;;;22.13;9.32;;;4.00;99.90;;;;;;4869641;29;20124;-84
2024/01/14 11:17:59;;;;;;;35.60;24.52;;;4.00;99.90;;;;;;4854941;29;20057;-81
2024/01/14 11:20:29;;;;;;;24.23;9.57;;;4.10;99.90;;;;;;4850313;29;20450;-80
2024/01/14 11:22:55;;;;;;;21.13;10.20;;;4.10;99.90;;;;;;4851041;29;20049;-79
2024/01/14 11:25:33;;;;;;;24.42;10.23;;;4.10;99.90;;;;;;4855132;29;20041;-79
2024/01/14 11:28:05;;;;;;;22.77;10.15;;;4.00;99.90;;;;;;4862211;29;20041;-78
2024/01/14 11:30:59;;;;;;;22.38;11.02;;;4.00;99.90;;;;;;4861722;29;20057;-81
2024/01/14 11:33:30;;;;;;;20.58;9.20;;;4.00;99.90;;;;;;4861786;29;20061;-81
2024/01/14 11:35:56;;;;;;;21.38;9.85;;;4.00;99.90;;;;;;4873052;29;20144;-79
2024/01/14 11:38:38;;;;;;;20.45;9.75;;;4.00;99.90;;;;;;4845956;29;20092;-77
2024/01/14 11:41:24;;;;;;;21.67;9.18;;;4.00;99.90;;;;;;4840482;29;20510;-80
2024/01/14 11:43:55;;;;;;;21.73;10.57;;;4.00;99.90;;;;;;4858220;29;20537;-84
2024/01/14 11:46:34;;;;;;;31.27;22.45;;;4.10;99.90;;;;;;4862523;29;20327;-82
2024/01/14 11:49:03;;;;;;;20.30;8.82;;;4.10;99.90;;;;;;4855666;29;20057;-82
2024/01/14 11:51:30;;;;;;;21.67;9.20;;;4.10;99.90;;;;;;4877360;29;20053;-83
2024/01/14 11:53:56;;;;;;;;;;;4.10;99.90;;;;;;4867760;29;20700;-83
2024/01/14 11:56:29;;;;;;;17.65;7.97;;;4.10;99.90;;;;;;4868395;29;19971;-80
2024/01/14 11:58:57;;;;;;;16.98;7.75;;;4.10;99.90;;;;;;4868878;29;20050;-79
2024/01/14 12:01:24;;;;;;;16.27;6.85;;;4.10;99.90;;;;;;4871260;29;20053;-79
2024/01/14 12:04:08;;;;;;;13.63;5.97;;;4.10;99.90;;;;;;4867198;29;20096;-79
2024/01/14 12:06:45;;;;;;;8.27;4.10;;;4.10;99.90;;;;;;4883074;29;20079;-82
2024/01/14 12:09:13;;;;;;;14.93;6.73;;;4.10;99.90;;;;;;4872943;29;20041;-81
2024/01/14 12:11:39;;;;;;;17.77;8.35;;;4.10;99.90;;;;;;4858035;29;20294;-81
2024/01/14 12:14:05;;;;;;;16.00;6.95;;;4.10;99.90;;;;;;4860090;29;20045;-77
2024/01/14 12:16:31;;;;;;;15.68;7.15;;;4.20;99.90;;;;;;4863355;29;20049;-78
2024/01/14 12:18:57;;;;;;;15.95;8.13;;;4.10;99.90;;;;;;4870708;29;20056;-84
2024/01/14 12:21:24;;;;;;;20.23;7.82;;;4.20;99.90;;;;;;4869714;29;20056;-79
2024/01/14 12:23:51;;;;;;;19.17;9.45;;;4.20;99.90;;;;;;4880364;29;20092;-81
2024/01/14 12:26:18;;;;;;;;;;;4.20;99.90;;;;;;4871011;29;20053;-81
2024/01/14 12:28:44;;;;;;;19.38;9.18;;;4.20;99.90;;;;;;4879116;29;20381;-85
2024/01/14 12:31:18;;;;;;;18.63;9.07;;;4.20;99.90;;;;;;4871103;29;20148;-83
2024/01/14 12:33:47;;;;;;;18.60;7.72;;;4.20;99.90;;;;;;4858254;29;20032;-88
2024/01/14 12:36:17;;;;;;;18.50;8.80;;;4.20;99.90;;;;;;4865805;29;20053;-88
2024/01/14 12:38:45;;;;;;;17.85;8.50;;;4.20;99.90;;;;;;4868890;29;20049;-90
2024/01/14 12:41:13;;;;;;;17.20;9.07;;;4.10;99.90;;;;;;4859391;29;20060;-88
2024/01/14 12:43:39;;;;;;;21.58;9.98;;;4.10;99.90;;;;;;4862970;29;20049;-89
2024/01/14 12:46:06;;;;;;;18.50;9.40;;;4.10;99.90;;;;;;4876055;29;20044;-89
2024/01/14 12:48:31;;;;;;;21.27;9.82;;;4.10;99.90;;;;;;4871752;29;20501;-87
2024/01/14 12:50:59;;;;;;;18.50;8.85;;;4.00;99.90;;;;;;4842352;29;20102;-87